Terminal Aerodrome Forecast
Issued by NWS

Home | Current Version | Previous Version | Graphics & Text | Print | Product List | Glossary On
Versions: 1 2 3 4 5 6 7 8 9 10 11 12 13 14 15 16 17 18
542
FTUS43 KMPX 161732
TAFRWF
TAF
KRWF 161732Z 1618/1718 01004KT 6SM BR SCT006 OVC080
     FM170100 VRB03KT P6SM OVC008
     FM171700 00000KT P6SM BKN015=

USA.gov is the U.S. government's official web portal to all federal, state and local government web resources and services.